Time;durP1;ratioP1;P1;durP2;ratioP2;P2;SDS_P1;SDS_P2;PMS_P1;PMS_P2;Temp;Humidity;BMP_temperature;BMP_pressure;BME280_temperature;BME280_humidity;BME280_pressure;Samples;Min_cycle;Max_cycle;Signal;HPM_P1;HPM_P2
2023/07/08 00:00:44;;;;;;;16.23;14.52;;;;;;;-145.63;58.82;38464.97;5065994;28;20043;-67
2023/07/08 00:03:10;;;;;;;15.75;14.27;;;;;;;-145.63;59.01;38484.53;5082347;28;20034;-67
2023/07/08 00:05:36;;;;;;;16.35;14.40;;;;;;;-145.63;59.25;38466.94;5074788;28;20025;-67
2023/07/08 00:08:01;;;;;;;16.90;15.00;;;;;;;-145.63;59.27;38492.34;5072502;28;20073;-67
2023/07/08 00:10:30;;;;;;;18.15;16.25;;;;;;;-145.63;59.48;38531.47;5084405;28;20059;-68
2023/07/08 00:12:58;;;;;;;16.33;14.70;;;;;;;-145.63;59.23;38554.94;5065792;28;20095;-68
2023/07/08 00:15:32;;;;;;;16.48;14.82;;;;;;;-145.63;59.20;38531.47;5065968;28;20028;-68
2023/07/08 00:17:58;;;;;;;16.13;14.43;;;;;;;-145.63;59.21;38486.50;5065580;28;20039;-68
2023/07/08 00:20:37;;;;;;;15.25;13.75;;;;;;;-145.63;58.76;38562.75;5075646;28;20028;-68
2023/07/08 00:23:03;;;;;;;15.45;13.82;;;;;;;-145.63;58.55;38500.19;5078909;28;20033;-67
2023/07/08 00:25:30;;;;;;;18.38;14.90;;;;;;;-145.63;58.97;38502.13;5067675;28;20032;-68
2023/07/08 00:27:55;;;;;;;16.83;15.18;;;;;;;-145.63;59.07;38527.56;5084012;28;20027;-68
2023/07/08 00:30:25;;;;;;;16.80;14.27;;;;;;;-145.63;59.00;38463.03;5084589;28;20029;-67
2023/07/08 00:32:55;;;;;;;15.57;13.98;;;;;;;-145.63;59.13;38527.56;5071793;28;20039;-67
2023/07/08 00:35:33;;;;;;;16.10;14.52;;;;;;;-145.63;59.24;38601.84;5066322;28;20115;-68
2023/07/08 00:38:02;;;;;;;15.40;13.90;;;;;;;-145.63;58.97;38545.16;5071139;28;20032;-68
2023/07/08 00:40:32;;;;;;;15.02;13.43;;;;;;;-145.63;59.18;38523.66;5081312;28;20024;-68
2023/07/08 00:43:02;;;;;;;17.23;14.98;;;;;;;-145.63;58.81;38517.78;5085411;28;20085;-69
2023/07/08 00:45:43;;;;;;;15.75;14.15;;;;;;;-145.63;58.97;38592.09;5067091;28;20108;-68
2023/07/08 00:48:28;;;;;;;15.57;14.07;;;;;;;-145.63;58.89;38562.75;5081203;28;20370;-68
2023/07/08 00:50:54;;;;;;;16.55;14.40;;;;;;;-145.63;59.10;38539.28;5071687;28;20056;-67
2023/07/08 00:53:36;;;;;;;18.08;15.05;;;;;;;-145.63;59.39;38541.25;5073829;28;20024;-67
2023/07/08 00:56:13;;;;;;;15.65;13.00;;;;;;;-145.63;59.36;38551.03;5078940;28;20032;-67
2023/07/08 00:59:00;;;;;;;15.63;13.85;;;;;;;-145.63;59.45;38537.34;5068176;28;20043;-68
2023/07/08 01:01:28;;;;;;;15.77;14.07;;;;;;;-145.63;59.46;38601.84;5083941;28;20036;-67
2023/07/08 01:04:02;;;;;;;15.68;14.05;;;;;;;-145.63;59.30;38543.19;5064963;28;20029;-67
2023/07/08 01:06:32;;;;;;;15.07;13.10;;;;;;;-145.63;59.03;38531.47;5083147;28;20201;-67
2023/07/08 01:09:02;;;;;;;16.02;14.40;;;;;;;-145.63;59.39;38515.81;5070776;28;20121;-67
2023/07/08 01:11:28;;;;;;;16.35;14.02;;;;;;;-145.63;59.15;38551.03;5074463;28;20036;-68
2023/07/08 01:13:53;;;;;;;15.18;13.68;;;;;;;-145.63;58.89;38549.06;5061767;28;20025;-68
2023/07/08 01:16:19;;;;;;;14.07;12.68;;;;;;;-145.63;58.83;38558.84;5064998;28;20056;-67
2023/07/08 01:18:52;;;;;;;16.63;13.82;;;;;;;-145.63;58.78;38531.47;5084329;28;20021;-67
2023/07/08 01:21:37;;;;;;;16.35;14.75;;;;;;;-145.63;58.99;38605.78;5067707;28;20039;-68
2023/07/08 01:24:08;;;;;;;19.77;16.50;;;;;;;-145.63;58.81;38551.03;5079213;28;20036;-68
2023/07/08 01:26:36;;;;;;;18.92;16.98;;;;;;;-145.63;58.98;38551.03;5074228;28;20218;-67
2023/07/08 01:29:03;;;;;;;22.13;17.33;;;;;;;-145.63;58.92;38549.06;5070035;28;20058;-67
2023/07/08 01:31:29;;;;;;;18.67;16.50;;;;;;;-145.63;59.05;38529.50;5083498;28;20052;-67
2023/07/08 01:33:55;;;;;;;19.17;17.15;;;;;;;-145.63;58.97;38558.84;5064235;28;20036;-68
2023/07/08 01:36:21;;;;;;;19.17;15.75;;;;;;;-145.63;58.89;38566.66;5064803;28;20035;-67
2023/07/08 01:38:46;;;;;;;18.08;15.18;;;;;;;-145.63;59.16;38549.06;5075072;28;20127;-68
2023/07/08 01:41:15;;;;;;;14.85;13.35;;;;;;;-145.63;58.86;38560.78;5079152;28;20031;-68
2023/07/08 01:43:42;;;;;;;14.88;13.48;;;;;;;-145.63;58.80;38549.06;5081276;28;20045;-67
2023/07/08 01:46:19;;;;;;;15.90;14.23;;;;;;;-145.63;58.97;38568.63;5064193;28;20043;-67
2023/07/08 01:48:56;;;;;;;16.08;14.40;;;;;;;-145.63;58.84;38502.13;5044252;28;20033;-67
2023/07/08 01:51:23;;;;;;;15.98;14.25;;;;;;;-145.63;59.18;38599.91;5077572;28;20058;-68
2023/07/08 01:53:49;;;;;;;15.32;13.73;;;;;;;-145.63;59.01;38580.34;5071495;28;20025;-68
2023/07/08 01:56:15;;;;;;;16.90;13.43;;;;;;;-145.63;58.38;38543.19;5071749;28;20024;-68
2023/07/08 01:58:41;;;;;;;15.68;13.73;;;;;;;-145.63;58.03;38560.78;5081241;28;20025;-68
2023/07/08 02:01:07;;;;;;;14.38;12.88;;;;;;;-145.63;58.34;38562.75;5062590;28;20032;-67
2023/07/08 02:03:33;;;;;;;15.75;13.63;;;;;;;-145.63;57.75;38541.25;5082134;28;20100;-67
2023/07/08 02:05:58;;;;;;;14.95;13.15;;;;;;;-145.63;58.16;38560.78;5070193;28;20043;-68
2023/07/08 02:08:24;;;;;;;15.30;12.93;;;;;;;-145.63;57.99;38551.03;5072424;28;20035;-67
2023/07/08 02:10:53;;;;;;;15.00;12.80;;;;;;;-145.63;58.12;38582.31;5079358;28;20056;-67
2023/07/08 02:13:19;;;;;;;15.13;13.40;;;;;;;-145.63;58.17;38519.72;5064148;28;20314;-67
2023/07/08 02:15:45;;;;;;;15.43;13.93;;;;;;;-145.63;58.07;38531.47;5063983;28;20033;-67
2023/07/08 02:18:10;;;;;;;14.63;13.13;;;;;;;-145.63;58.16;38556.88;5078534;28;20344;-67
2023/07/08 02:20:36;;;;;;;16.35;13.48;;;;;;;-145.63;58.14;38525.59;5071717;28;20067;-67
2023/07/08 02:23:02;;;;;;;15.10;13.50;;;;;;;-145.63;57.14;38523.66;5068857;28;20028;-68
2023/07/08 02:25:28;;;;;;;16.00;13.23;;;;;;;-145.63;57.03;38519.72;5082666;28;20020;-68
2023/07/08 02:27:57;;;;;;;15.35;13.82;;;;;;;-145.63;57.68;38535.38;5063431;28;20029;-69
2023/07/08 02:30:26;;;;;;;15.43;13.43;;;;;;;-145.63;57.91;38531.47;5079786;28;20032;-67
2023/07/08 02:32:58;;;;;;;15.90;13.38;;;;;;;-145.63;58.07;38549.06;5071333;28;20028;-68
2023/07/08 02:35:29;;;;;;;18.50;14.85;;;;;;;-145.63;57.63;38269.47;5063463;28;20029;-68
2023/07/08 02:37:57;;;;;;;16.95;14.60;;;;;;;-145.63;57.20;38535.38;5067756;28;20101;-68
2023/07/08 02:40:24;;;;;;;17.67;15.35;;;;;;;-145.63;57.36;38531.47;5078096;28;20017;-68
2023/07/08 02:42:49;;;;;;;17.55;15.75;;;;;;;-145.63;57.24;38506.03;5055936;28;20040;-68
2023/07/08 02:45:16;;;;;;;17.05;15.25;;;;;;;-145.63;57.73;38519.72;5078738;28;20024;-68
2023/07/08 02:47:42;;;;;;;16.75;14.38;;;;;;;-145.63;57.90;38539.28;5072514;28;20308;-68
2023/07/08 02:50:09;;;;;;;16.70;14.90;;;;;;;-145.63;58.10;38539.28;5068099;28;20052;-67
2023/07/08 02:52:35;;;;;;;19.63;15.23;;;;;;;-145.63;58.28;38556.88;5080919;28;20071;-68
2023/07/08 02:55:00;;;;;;;18.13;16.10;;;;;;;-145.63;58.07;38527.56;5067586;28;20313;-68
2023/07/08 02:57:26;;;;;;;18.58;16.52;;;;;;;-145.63;57.70;38558.84;5084453;28;20020;-67
2023/07/08 02:59:51;;;;;;;17.35;15.63;;;;;;;-145.63;58.09;38592.09;5075135;28;20143;-68
2023/07/08 03:02:17;;;;;;;21.02;16.80;;;;;;;-145.63;57.66;38556.88;5074687;28;20021;-68
2023/07/08 03:04:42;;;;;;;16.63;14.57;;;;;;;-145.63;57.18;38558.84;5084863;28;20272;-67
2023/07/08 03:07:11;;;;;;;17.92;15.43;;;;;;;-145.63;57.74;38533.41;5067475;28;20021;-67
2023/07/08 03:09:41;;;;;;;17.40;15.60;;;;;;;-145.63;57.59;38527.56;5084216;28;20118;-68
2023/07/08 03:12:08;;;;;;;18.75;14.80;;;;;;;-145.63;57.40;38539.28;5072726;28;20037;-68
2023/07/08 03:14:33;;;;;;;20.58;16.08;;;;;;;-145.63;58.09;38562.75;5066840;28;20302;-68
2023/07/08 03:16:59;;;;;;;17.63;15.40;;;;;;;-145.63;57.28;38551.03;5066725;28;20021;-68
2023/07/08 03:19:25;;;;;;;19.38;16.55;;;;;;;-145.63;57.46;38596.00;5066986;28;20201;-68
2023/07/08 03:21:51;;;;;;;21.65;17.00;;;;;;;-145.63;57.00;38539.28;5046909;28;20037;-68
2023/07/08 03:24:17;;;;;;;17.30;15.27;;;;;;;-145.63;56.66;38543.19;5076427;28;20020;-68
2023/07/08 03:26:44;;;;;;;17.73;15.02;;;;;;;-145.63;56.64;38513.88;5076078;28;20067;-68
2023/07/08 03:29:17;;;;;;;17.58;15.77;;;;;;;-145.63;57.26;38486.50;5072783;28;20070;-68
2023/07/08 03:31:44;;;;;;;16.33;14.63;;;;;;;-145.63;57.00;38552.97;5084178;28;20233;-68
2023/07/08 03:34:15;;;;;;;16.52;14.77;;;;;;;-145.63;56.28;38461.06;5065360;28;20021;-68
2023/07/08 03:36:48;;;;;;;15.85;14.15;;;;;;;-145.63;55.36;38513.88;5066574;28;20024;-68
2023/07/08 03:39:15;;;;;;;16.27;14.35;;;;;;;-145.63;55.05;38406.31;5081454;28;20027;-69
2023/07/08 03:41:41;;;;;;;16.88;14.88;;;;;;;-145.63;54.95;38375.03;5081152;28;20074;-68
2023/07/08 03:44:06;;;;;;;17.25;15.45;;;;;;;-145.63;53.66;38347.66;5081076;28;20033;-68
2023/07/08 03:46:32;;;;;;;17.02;14.18;;;;;;;-145.63;54.08;38451.28;5067443;28;20017;-68
2023/07/08 03:48:58;;;;;;;18.67;14.80;;;;;;;-145.63;54.24;38269.47;5086595;28;20024;-69
2023/07/08 03:51:27;;;;;;;18.02;15.82;;;;;;;-145.63;54.02;38406.31;5070544;28;20025;-69
2023/07/08 03:53:53;;;;;;;17.02;15.23;;;;;;;-145.63;54.24;38449.34;5078062;28;20032;-67
2023/07/08 03:56:18;;;;;;;18.05;15.15;;;;;;;-145.63;53.95;38431.75;5079490;28;20090;-68
2023/07/08 03:58:44;;;;;;;17.35;15.55;;;;;;;-145.63;53.98;38443.47;5068520;28;20325;-69
2023/07/08 04:01:17;;;;;;;21.08;15.27;;;;;;;-145.63;53.99;38504.09;5085259;28;20105;-68
2023/07/08 04:03:43;;;;;;;18.02;15.60;;;;;;;-145.63;54.03;38429.78;5067666;28;20025;-68
2023/07/08 04:06:09;;;;;;;16.65;14.90;;;;;;;-145.63;53.63;38423.91;5079841;28;20039;-68
2023/07/08 04:08:34;;;;;;;18.17;15.80;;;;;;;-145.63;54.92;38451.28;5076711;28;20048;-69
2023/07/08 04:11:00;;;;;;;16.65;15.00;;;;;;;-145.63;54.81;38480.63;5070270;28;20288;-69
2023/07/08 04:13:27;;;;;;;16.48;14.73;;;;;;;-145.63;55.03;38445.44;5068245;28;20061;-68
2023/07/08 04:15:58;;;;;;;17.08;15.20;;;;;;;-145.63;54.88;38404.38;5065854;28;20187;-69
2023/07/08 04:18:23;;;;;;;17.53;15.43;;;;;;;-145.63;55.21;38410.22;5081482;28;20027;-68
2023/07/08 04:20:52;;;;;;;18.42;15.60;;;;;;;-145.63;55.04;38380.91;5074816;28;20233;-68
2023/07/08 04:23:20;;;;;;;16.75;14.95;;;;;;;-145.63;54.67;38402.41;5072388;28;20024;-69
2023/07/08 04:25:52;;;;;;;17.88;15.85;;;;;;;-145.63;54.42;38498.22;5083629;28;20081;-68
2023/07/08 04:28:18;;;;;;;16.60;15.00;;;;;;;-145.63;54.28;38449.34;5065693;28;20023;-69
2023/07/08 04:30:43;;;;;;;16.00;14.30;;;;;;;-145.63;53.76;38457.16;5083813;28;20056;-68
2023/07/08 04:33:11;;;;;;;15.65;13.98;;;;;;;-145.63;53.61;38406.31;5085369;28;20028;-69
2023/07/08 04:35:38;;;;;;;16.60;14.73;;;;;;;-145.63;54.24;38484.53;5074919;28;20099;-68
2023/07/08 04:38:16;;;;;;;15.02;13.50;;;;;;;-145.63;54.41;38461.06;5069979;28;20051;-69
2023/07/08 04:40:42;;;;;;;16.55;14.25;;;;;;;-145.63;54.50;38435.66;5078623;28;20202;-68
2023/07/08 04:43:07;;;;;;;15.60;13.77;;;;;;;-145.63;54.55;38486.50;5085567;28;20041;-68
2023/07/08 04:45:34;;;;;;;17.88;14.48;;;;;;;-145.63;53.65;38500.19;5068740;28;20047;-68
2023/07/08 04:48:00;;;;;;;15.23;13.80;;;;;;;-145.63;53.61;38484.53;5077660;28;20024;-67
2023/07/08 04:50:26;;;;;;;16.27;14.57;;;;;;;-145.63;53.65;38484.53;5077958;28;20043;-69
2023/07/08 04:52:51;;;;;;;18.25;14.48;;;;;;;-145.63;53.61;38508.00;5067607;28;20044;-69
2023/07/08 04:55:18;;;;;;;14.60;13.07;;;;;;;-145.63;53.27;38509.97;5085446;28;20090;-69
2023/07/08 04:57:43;;;;;;;14.60;13.15;;;;;;;-145.63;53.21;38353.53;5067095;28;20025;-69
2023/07/08 05:00:15;;;;;;;14.27;12.77;;;;;;;-145.63;53.84;38476.72;5077963;28;20035;-69
2023/07/08 05:02:41;;;;;;;14.73;13.23;;;;;;;-145.63;54.03;38457.16;5075350;28;20017;-69
2023/07/08 05:05:07;;;;;;;15.32;12.57;;;;;;;-145.63;53.22;38490.41;5069394;28;20021;-69
2023/07/08 05:07:32;;;;;;;13.27;11.88;;;;;;;-145.63;52.84;38494.31;5084808;28;20036;-69
2023/07/08 05:09:58;;;;;;;13.70;12.40;;;;;;;-145.63;53.40;38453.25;5065203;28;20340;-69
2023/07/08 05:12:25;;;;;;;13.55;11.80;;;;;;;-145.63;53.36;38527.56;5080092;28;20293;-68
2023/07/08 05:14:51;;;;;;;14.55;12.15;;;;;;;-145.63;53.60;38464.97;5072586;28;20040;-69
2023/07/08 05:17:16;;;;;;;13.80;11.90;;;;;;;-145.63;53.59;38470.84;5070021;28;20026;-68
2023/07/08 05:19:44;;;;;;;12.75;11.45;;;;;;;-145.63;53.46;38484.53;5083228;28;20017;-68
2023/07/08 05:22:09;;;;;;;13.35;11.43;;;;;;;-145.63;53.61;38502.13;5063311;28;20036;-68
2023/07/08 05:24:36;;;;;;;12.45;11.18;;;;;;;-145.63;53.84;38461.06;5081143;28;20043;-69
2023/07/08 05:27:03;;;;;;;12.52;11.32;;;;;;;-145.63;53.70;38502.13;5072203;28;20035;-68
2023/07/08 05:29:29;;;;;;;13.57;11.20;;;;;;;-145.63;54.00;38496.28;5071945;28;20127;-69
2023/07/08 05:31:54;;;;;;;13.43;12.02;;;;;;;-145.63;53.94;38484.53;5081692;28;20268;-69
2023/07/08 05:34:20;;;;;;;13.30;12.00;;;;;;;-145.63;53.75;38492.34;5064452;28;20256;-69
2023/07/08 05:36:45;;;;;;;12.90;11.60;;;;;;;-145.63;53.40;38476.72;5064213;28;20217;-69
2023/07/08 05:39:11;;;;;;;13.10;11.80;;;;;;;-145.63;53.61;38500.19;5077482;28;20039;-69
2023/07/08 05:41:36;;;;;;;13.15;11.85;;;;;;;-145.63;53.73;38511.91;5077543;28;20078;-69
2023/07/08 05:44:02;;;;;;;13.15;11.40;;;;;;;-145.63;53.32;38480.63;5080550;28;20029;-69
2023/07/08 05:46:28;;;;;;;12.63;11.43;;;;;;;-145.63;54.16;38498.22;5064592;28;20329;-69
2023/07/08 05:48:53;;;;;;;14.35;12.02;;;;;;;-145.63;54.40;38496.28;5063668;28;20048;-69
2023/07/08 05:51:19;;;;;;;14.65;12.15;;;;;;;-145.63;55.07;38517.78;5078577;28;20029;-69
2023/07/08 05:53:44;;;;;;;15.48;12.77;;;;;;;-145.63;54.80;38494.31;5073470;28;20032;-69
2023/07/08 05:56:10;;;;;;;12.77;11.50;;;;;;;-145.63;54.32;38560.78;5068726;28;20081;-69
2023/07/08 05:58:36;;;;;;;12.50;11.27;;;;;;;-145.63;54.10;38482.59;5083893;28;20040;-67
2023/07/08 06:01:02;;;;;;;12.05;10.85;;;;;;;-145.63;53.44;38504.09;5044283;28;20076;-69
2023/07/08 06:03:28;;;;;;;12.88;10.52;;;;;;;-145.63;53.31;38494.31;5074595;28;20029;-69
2023/07/08 06:05:53;;;;;;;11.02;10.02;;;;;;;-145.63;53.75;38437.59;5073355;28;20048;-69
2023/07/08 06:08:19;;;;;;;11.75;10.02;;;;;;;-145.63;54.05;38453.25;5069728;28;20402;-69
2023/07/08 06:10:45;;;;;;;11.93;10.73;;;;;;;-145.63;54.29;38482.59;5082809;28;20024;-68
2023/07/08 06:13:11;;;;;;;13.05;10.98;;;;;;;-145.63;54.11;38482.59;5063684;28;20532;-68
2023/07/08 06:15:37;;;;;;;11.88;10.73;;;;;;;-145.63;54.15;38498.22;5063736;28;20036;-70
2023/07/08 06:18:03;;;;;;;13.90;11.80;;;;;;;-145.63;53.19;38482.59;5063681;28;20328;-68
2023/07/08 06:20:29;;;;;;;12.00;10.68;;;;;;;-145.63;53.15;38457.16;5070524;28;20020;-68
2023/07/08 06:22:55;;;;;;;12.77;11.25;;;;;;;-145.63;53.50;38464.97;5081164;28;20052;-68
2023/07/08 06:25:21;;;;;;;15.00;10.70;;;;;;;-145.63;53.19;38406.31;5063681;28;20075;-69
2023/07/08 06:27:47;;;;;;;12.50;11.25;;;;;;;-145.63;53.19;38410.22;5079361;28;20029;-69
2023/07/08 06:30:13;;;;;;;13.40;12.00;;;;;;;-145.63;53.21;38476.72;5070322;28;20423;-68
2023/07/08 06:32:38;;;;;;;11.77;10.55;;;;;;;-145.63;53.24;38472.81;5071545;28;20247;-68
2023/07/08 06:35:04;;;;;;;12.68;10.45;;;;;;;-145.63;53.59;38482.59;5077429;28;20033;-69
2023/07/08 06:37:30;;;;;;;12.55;10.07;;;;;;;-145.63;53.84;38447.38;5063447;28;20025;-69
2023/07/08 06:39:55;;;;;;;13.55;10.48;;;;;;;-145.63;53.12;38457.16;5062865;28;20024;-71
2023/07/08 06:42:21;;;;;;;11.77;10.65;;;;;;;-145.63;52.40;38453.25;5045758;28;20032;-69
2023/07/08 06:44:50;;;;;;;11.20;10.20;;;;;;;-145.63;52.14;38476.72;5072719;28;20028;-69
2023/07/08 06:47:20;;;;;;;11.57;9.82;;;;;;;-145.63;52.00;38433.69;5078158;28;20489;-69
2023/07/08 06:49:49;;;;;;;12.57;9.85;;;;;;;-145.63;51.66;38449.34;5063013;28;20025;-70
2023/07/08 06:52:15;;;;;;;11.85;10.13;;;;;;;-145.63;51.80;38461.06;5083298;28;20036;-69
2023/07/08 06:54:40;;;;;;;12.13;10.63;;;;;;;-145.63;51.25;38496.28;5066429;28;20029;-69
2023/07/08 06:57:06;;;;;;;12.00;10.65;;;;;;;-145.63;51.29;38445.44;5075226;28;20024;-68
2023/07/08 06:59:33;;;;;;;14.63;10.73;;;;;;;-145.63;51.57;38490.41;5075963;28;20025;-68
2023/07/08 07:01:58;;;;;;;10.52;9.43;;;;;;;-145.63;51.30;38476.72;5063111;28;20040;-68
2023/07/08 07:04:24;;;;;;;10.55;9.43;;;;;;;-145.63;51.00;38427.84;5063067;28;20025;-69
2023/07/08 07:06:49;;;;;;;12.05;10.75;;;;;;;-145.63;51.15;38490.41;5079768;28;20027;-69
2023/07/08 07:09:15;;;;;;;10.55;9.55;;;;;;;-145.63;50.95;38455.22;5069932;28;20095;-69
2023/07/08 07:11:40;;;;;;;11.20;9.88;;;;;;;-145.63;50.62;38447.38;5071656;28;20036;-69
2023/07/08 07:14:06;;;;;;;10.98;9.80;;;;;;;-145.63;50.71;38484.53;5079241;28;20025;-68
2023/07/08 07:16:32;;;;;;;11.00;9.65;;;;;;;-145.63;51.40;38474.75;5063035;28;20028;-68
2023/07/08 07:18:57;;;;;;;11.10;10.00;;;;;;;-145.63;51.10;38414.16;5081558;28;20206;-69
2023/07/08 07:21:23;;;;;;;15.27;11.13;;;;;;;-145.63;51.33;38453.25;5068730;28;20048;-69
2023/07/08 07:23:48;;;;;;;12.90;10.13;;;;;;;-145.63;51.58;38466.94;5062724;28;20033;-68
2023/07/08 07:26:14;;;;;;;12.65;10.32;;;;;;;-145.63;51.32;38451.28;5062375;28;20037;-68
2023/07/08 07:28:40;;;;;;;11.70;10.50;;;;;;;-145.63;51.00;38488.44;5063098;28;20033;-69
2023/07/08 07:31:06;;;;;;;12.15;10.60;;;;;;;-145.63;50.72;38437.59;5062821;28;20066;-69
2023/07/08 07:33:32;;;;;;;15.38;11.68;;;;;;;-145.63;51.40;38482.59;5078124;28;20017;-69
2023/07/08 07:35:58;;;;;;;15.35;11.07;;;;;;;-145.63;51.20;38488.44;5069324;28;20079;-70
2023/07/08 07:38:28;;;;;;;13.88;10.63;;;;;;;-145.63;51.33;38468.91;5068355;28;20317;-69
2023/07/08 07:40:54;;;;;;;12.02;10.52;;;;;;;-145.63;51.04;38445.44;5078270;28;20037;-69
2023/07/08 07:43:19;;;;;;;12.43;11.13;;;;;;;-145.63;51.53;38508.00;5086570;28;20039;-69
2023/07/08 07:45:48;;;;;;;13.65;10.85;;;;;;;-145.63;51.71;38443.47;5069332;28;20035;-69
2023/07/08 07:48:14;;;;;;;12.80;10.73;;;;;;;-145.63;52.11;38468.91;5078727;28;20052;-69
2023/07/08 07:50:40;;;;;;;10.55;9.27;;;;;;;-145.63;52.25;38468.91;5078461;28;20321;-69
2023/07/08 07:53:06;;;;;;;10.80;9.63;;;;;;;-145.63;52.29;38402.41;5069121;28;20036;-68
2023/07/08 07:55:31;;;;;;;11.85;9.60;;;;;;;-145.63;52.28;38492.34;5086660;28;20074;-69
2023/07/08 07:57:57;;;;;;;10.90;9.60;;;;;;;-145.63;51.96;38445.44;5067404;28;20024;-68
2023/07/08 08:00:22;;;;;;;11.90;9.70;;;;;;;-145.63;52.35;38421.97;5066042;28;20017;-69
2023/07/08 08:02:48;;;;;;;10.43;9.35;;;;;;;-145.63;52.54;38431.75;5074723;28;20035;-69
2023/07/08 08:05:14;;;;;;;12.05;9.80;;;;;;;-145.63;52.38;38439.56;5081710;28;20040;-68
2023/07/08 08:07:40;;;;;;;10.90;9.27;;;;;;;-145.63;51.75;38431.75;5065857;28;20071;-69
2023/07/08 08:10:06;;;;;;;10.93;8.63;;;;;;;-145.63;49.93;38484.53;5085010;28;20099;-68
2023/07/08 08:12:32;;;;;;;10.20;8.57;;;;;;;-145.63;49.48;38447.38;5071232;28;20044;-69
2023/07/08 08:14:57;;;;;;;10.23;8.38;;;;;;;-145.63;50.53;38461.06;5065760;28;20025;-69
2023/07/08 08:17:23;;;;;;;9.45;8.55;;;;;;;-145.63;50.53;38431.75;5065969;28;20044;-69
2023/07/08 08:19:48;;;;;;;8.82;8.02;;;;;;;-145.63;49.16;38445.44;5066100;28;20029;-69
2023/07/08 08:22:15;;;;;;;9.50;8.50;;;;;;;-145.63;50.07;38437.59;5085629;28;20039;-69
2023/07/08 08:24:40;;;;;;;11.30;9.18;;;;;;;-145.63;49.74;38445.44;5069722;28;20036;-69
2023/07/08 08:27:06;;;;;;;10.50;8.98;;;;;;;-145.63;49.65;38447.38;5076576;28;20025;-69
2023/07/08 08:29:31;;;;;;;9.70;7.82;;;;;;;-145.63;49.94;38441.53;5078177;28;20048;-69
2023/07/08 08:31:57;;;;;;;12.50;8.95;;;;;;;-145.63;49.40;38463.03;5066657;28;20037;-69
2023/07/08 08:34:22;;;;;;;10.30;8.52;;;;;;;-145.63;49.23;38418.06;5085373;28;20075;-69
2023/07/08 08:36:48;;;;;;;10.32;9.23;;;;;;;-145.63;49.39;38455.22;5065692;28;20025;-68
2023/07/08 08:39:13;;;;;;;10.15;9.07;;;;;;;-145.63;50.91;38468.91;5081176;28;20020;-68
2023/07/08 08:41:42;;;;;;;13.15;9.32;;;;;;;-145.63;51.83;38492.34;5076847;28;20031;-68
2023/07/08 08:44:20;;;;;;;10.20;8.63;;;;;;;-145.63;51.62;38492.34;5082337;28;20334;-68
2023/07/08 08:46:55;;;;;;;9.30;8.35;;;;;;;-145.63;51.27;38484.53;5065493;28;20039;-69
2023/07/08 08:49:20;;;;;;;21.67;17.88;;;;;;;-145.63;51.31;38515.81;5045242;28;20028;-68
2023/07/08 08:51:47;;;;;;;14.82;13.35;;;;;;;-145.63;50.50;38539.28;5076766;28;20032;-69
2023/07/08 08:54:13;;;;;;;11.07;9.25;;;;;;;-145.63;50.59;38482.59;5073259;28;20033;-68
2023/07/08 08:56:38;;;;;;;11.80;9.25;;;;;;;-145.63;51.27;38502.13;5072357;28;20049;-69
2023/07/08 08:59:31;;;;;;;10.35;9.25;;;;;;;-145.63;50.10;38453.25;5082856;28;20048;-69
2023/07/08 09:01:58;;;;;;;9.23;8.35;;;;;;;-145.63;49.93;38488.44;5063631;28;20035;-68
2023/07/08 09:04:32;;;;;;;10.23;9.10;;;;;;;-145.63;49.88;38468.91;5065161;28;20088;-68
2023/07/08 09:07:06;;;;;;;34.42;28.58;;;;;;;-145.63;50.21;37737.66;5082540;28;20318;-68
2023/07/08 09:09:41;;;;;;;12.40;9.05;;;;;;;-145.63;51.04;38480.63;5070794;28;20079;-69
2023/07/08 09:12:16;;;;;;;79.22;57.83;;;;;;;-145.63;50.49;38515.81;5075390;28;20043;-68
2023/07/08 09:14:42;;;;;;;28.45;21.25;;;;;;;-145.63;49.88;38423.91;5077668;28;20036;-68
2023/07/08 09:17:32;;;;;;;10.80;9.73;;;;;;;-145.63;49.45;38461.06;5067522;28;20047;-69
2023/07/08 09:20:24;;;;;;;9.77;8.77;;;;;;;-145.63;49.68;38445.44;5083380;28;20050;-69
2023/07/08 09:23:13;;;;;;;10.13;9.02;;;;;;;-145.63;49.49;38472.81;5064381;28;20036;-69
2023/07/08 09:25:48;;;;;;;10.35;8.77;;;;;;;-145.63;48.87;38412.19;5084651;28;20028;-68
2023/07/08 09:28:14;;;;;;;9.35;8.40;;;;;;;-145.63;48.74;38400.47;5064238;28;20040;-67
2023/07/08 09:30:40;;;;;;;10.10;9.00;;;;;;;-145.63;48.30;38363.31;5063371;28;20221;-68
2023/07/08 09:33:09;;;;;;;9.65;8.23;;;;;;;-145.63;48.33;37624.28;5074852;28;20029;-68
2023/07/08 09:35:40;;;;;;;19.13;17.10;;;;;;;-145.63;48.65;38314.44;5074150;28;20326;-69
2023/07/08 09:38:07;;;;;;;;;;;;;;;-145.63;47.73;38312.47;5064515;28;20025;-69
2023/07/08 09:40:33;;;;;;;8.20;7.40;;;;;;;-145.63;47.01;38287.06;5064213;28;19908;-69
2023/07/08 09:43:15;;;;;;;11.73;8.18;;;;;;;-145.63;46.17;38332.03;5062819;28;20029;-68
2023/07/08 09:45:49;;;;;;;9.48;7.45;;;;;;;-145.63;46.06;38275.31;5078200;28;20024;-69
2023/07/08 09:48:20;;;;;;;8.70;7.80;;;;;;;-145.63;45.69;38267.50;5071883;28;20341;-69
2023/07/08 09:50:49;;;;;;;8.70;7.40;;;;;;;-145.63;45.34;38199.06;5072794;28;20032;-69
2023/07/08 09:53:14;;;;;;;8.57;7.30;;;;;;;-145.63;44.08;38206.88;5081099;28;20048;-69
2023/07/08 09:55:41;;;;;;;7.30;6.60;;;;;;;-145.63;44.54;38218.63;5064272;28;20036;-69
2023/07/08 09:58:13;;;;;;;7.65;6.85;;;;;;;-145.63;45.35;38204.94;5063933;28;20036;-68
2023/07/08 10:00:41;;;;;;;8.27;7.47;;;;;;;-145.63;45.55;38214.72;5078326;28;20078;-68
2023/07/08 10:03:33;;;;;;;9.27;7.50;;;;;;;-145.63;45.38;38202.97;5073130;28;20247;-68
2023/07/08 10:06:05;;;;;;;8.40;7.60;;;;;;;-145.63;45.89;38224.47;5070313;28;20035;-68
2023/07/08 10:08:42;;;;;;;7.93;7.22;;;;;;;-145.63;46.09;38179.50;5078556;28;20048;-68
2023/07/08 10:11:16;;;;;;;8.73;7.57;;;;;;;-145.63;45.08;38204.94;5063863;28;20037;-68
2023/07/08 10:13:47;;;;;;;7.95;6.70;;;;;;;-145.63;45.37;38183.44;5063818;28;20340;-68
2023/07/08 10:16:33;;;;;;;8.13;7.38;;;;;;;-145.63;43.42;38173.66;5063864;28;20036;-68
2023/07/08 10:19:00;;;;;;;9.27;8.38;;;;;;;-145.63;43.56;38159.97;5063329;28;20032;-68
2023/07/08 10:21:41;;;;;;;8.63;7.72;;;;;;;-145.63;42.54;38132.59;5076090;28;20024;-68
2023/07/08 10:24:36;;;;;;;7.53;6.83;;;;;;;-145.63;44.09;38062.22;5073264;28;20028;-69
2023/07/08 10:27:31;;;;;;;9.20;7.15;;;;;;;-145.63;42.92;38150.19;5063417;28;20055;-67
2023/07/08 10:30:21;;;;;;;11.20;7.40;;;;;;;-145.63;43.80;38136.50;5050004;28;20043;-69
2023/07/08 10:32:53;;;;;;;11.15;7.85;;;;;;;-145.63;43.00;38109.13;5077265;28;20217;-69
2023/07/08 10:35:18;;;;;;;;;;;;;;;-145.63;43.34;38071.97;5064400;28;20033;-68
2023/07/08 10:38:01;;;;;;;7.97;6.88;;;;;;;-145.63;43.18;38066.13;5063107;28;19912;-69
2023/07/08 10:40:55;;;;;;;8.18;6.40;;;;;;;-145.63;42.81;38054.38;5061775;28;20020;-69
2023/07/08 10:43:29;;;;;;;8.18;6.82;;;;;;;-145.63;42.69;38046.56;5043433;28;20035;-68
2023/07/08 10:46:19;;;;;;;6.85;6.15;;;;;;;-145.63;42.24;38136.50;5076282;28;20033;-68
2023/07/08 10:49:12;;;;;;;7.65;6.07;;;;;;;-145.63;42.35;38062.22;5067947;28;20111;-68
2023/07/08 10:52:06;;;;;;;6.65;4.93;;;;;;;-145.63;41.55;38146.28;5077417;28;20073;-68
2023/07/08 10:55:01;;;;;;;5.50;4.90;;;;;;;-145.63;41.74;38126.72;5056675;28;20151;-67
2023/07/08 10:57:35;;;;;;;5.25;4.75;;;;;;;-145.63;41.29;38103.25;5053848;28;20067;-68
2023/07/08 11:00:13;;;;;;;5.60;4.65;;;;;;;-145.63;40.85;38101.31;5074795;28;20222;-68
2023/07/08 11:03:16;;;;;;;5.10;4.32;;;;;;;-145.63;40.68;38062.22;5063352;28;20084;-67
2023/07/08 11:05:50;;;;;;;4.95;4.40;;;;;;;-145.63;41.86;37952.72;5069255;28;20170;-68
2023/07/08 11:08:27;;;;;;;7.00;4.93;;;;;;;-145.63;40.60;38042.66;5079797;28;20319;-69
2023/07/08 11:11:00;;;;;;;5.70;5.28;;;;;;;-145.63;40.86;38083.72;5062165;28;20350;-68
2023/07/08 11:13:30;;;;;;;5.22;4.72;;;;;;;-145.63;41.23;38095.44;5043305;28;20040;-68